Hollins, Alabama
Current Conditions -  °F | °C
As of 12:35 PM on Thursday 30 Oct 2014 (Local Time) from KSCD Reporting Station
Clear Clear  
Wind Chill: 64°   Ceiling: Unl
Heat Index: 64°   Visibility: 10mi
Dew Point: 39°   Wind: 3mph
Humidity: 40%   Direction: 30°NNE
Pressure: 30.1"   Gusts: NA
Location:  33.12°N, 86.14°W
Report Text: KSCD 301735Z AUTO 03003KT 10SM CLR 18/04 A3010 RMK AO2 T01750038
Loading
Personal Weather Stations






























Interactive Weather Map
Tropical Storm Tracking
New forecast layout! Learn more

10-Day Weather Forecast

Advertisements
Track Severe Weather on mobile